Time;durP1;ratioP1;P1;durP2;ratioP2;P2;SDS_P1;SDS_P2;PMS_P1;PMS_P2;Temp;Humidity;BMP_temperature;BMP_pressure;BME280_temperature;BME280_humidity;BME280_pressure;Samples;Min_cycle;Max_cycle;Signal;HPM_P1;HPM_P2
2021/04/11 00:01:13;;;;;;;10.60;6.20;;;9.50;98.40;;;;;;4978110;28;20030;-81
2021/04/11 00:03:38;;;;;;;6.93;5.50;;;9.50;98.40;;;;;;4994520;28;20030;-82
2021/04/11 00:06:04;;;;;;;6.55;3.95;;;9.50;98.30;;;;;;4991832;28;20425;-81
2021/04/11 00:08:29;;;;;;;6.13;4.68;;;9.50;98.30;;;;;;4981233;28;20030;-81
2021/04/11 00:10:59;;;;;;;8.63;6.05;;;9.60;98.60;;;;;;5002099;28;20034;-81
2021/04/11 00:13:32;;;;;;;9.35;5.05;;;9.50;98.40;;;;;;4990852;28;20075;-80
2021/04/11 00:15:58;;;;;;;7.63;4.82;;;9.50;98.50;;;;;;4993352;28;20545;-79
2021/04/11 00:18:23;;;;;;;8.02;4.82;;;9.50;98.70;;;;;;4982196;28;20030;-81
2021/04/11 00:20:49;;;;;;;8.82;5.10;;;9.50;98.50;;;;;;5006765;28;20057;-80
2021/04/11 00:23:15;;;;;;;6.95;5.32;;;9.50;98.40;;;;;;4974853;28;20446;-80
2021/04/11 00:25:41;;;;;;;7.35;4.72;;;9.50;98.50;;;;;;4990543;28;20042;-80
2021/04/11 00:28:09;;;;;;;7.05;4.80;;;9.50;98.20;;;;;;5002807;28;20037;-80
2021/04/11 00:30:35;;;;;;;5.47;4.00;;;9.50;98.40;;;;;;4993186;28;20062;-81
2021/04/11 00:33:02;;;;;;;7.20;4.57;;;9.50;98.40;;;;;;4992498;28;20459;-80
2021/04/11 00:35:28;;;;;;;8.75;5.72;;;9.50;98.20;;;;;;4977213;28;20030;-80
2021/04/11 00:37:53;;;;;;;6.88;4.63;;;9.50;98.60;;;;;;4997813;28;20037;-81
2021/04/11 00:40:24;;;;;;;6.55;5.20;;;9.50;98.30;;;;;;4989596;28;20103;-80
2021/04/11 00:42:52;;;;;;;5.72;4.43;;;9.50;98.30;;;;;;4995769;28;20038;-81
2021/04/11 00:45:52;;;;;;;8.00;4.80;;;9.50;98.60;;;;;;5006730;28;20057;-80
2021/04/11 00:48:18;;;;;;;9.70;5.63;;;9.50;98.50;;;;;;4990525;28;20041;-81
2021/04/11 00:50:54;;;;;;;6.38;4.70;;;9.50;98.40;;;;;;4977575;28;20390;-81
2021/04/11 00:53:19;;;;;;;6.15;4.88;;;9.50;98.40;;;;;;4983016;28;20030;-81
2021/04/11 00:55:45;;;;;;;7.40;5.35;;;9.50;98.40;;;;;;4980349;28;20394;-81
2021/04/11 00:58:10;;;;;;;6.82;5.30;;;9.50;98.60;;;;;;4981502;28;20171;-80
2021/04/11 01:00:36;;;;;;;6.68;5.13;;;9.50;98.40;;;;;;5002090;28;20042;-78
2021/04/11 01:03:02;;;;;;;6.25;4.50;;;9.50;98.70;;;;;;4978411;28;20035;-80
2021/04/11 01:05:30;;;;;;;6.93;4.50;;;9.50;98.40;;;;;;4991699;28;20038;-80
2021/04/11 01:07:56;;;;;;;6.75;5.22;;;9.50;98.40;;;;;;5000507;28;20030;-81
2021/04/11 01:10:28;;;;;;;6.63;4.75;;;9.50;98.40;;;;;;4993505;28;20044;-81
2021/04/11 01:12:54;;;;;;;8.05;4.05;;;9.50;98.50;;;;;;4991079;28;20046;-80
2021/04/11 01:15:24;;;;;;;8.07;5.25;;;9.50;98.40;;;;;;4971981;28;20034;-80
2021/04/11 01:17:50;;;;;;;6.70;5.15;;;9.50;98.60;;;;;;4991401;28;20048;-80
2021/04/11 01:20:17;;;;;;;8.57;4.75;;;9.50;98.40;;;;;;4987592;28;20393;-81
2021/04/11 01:22:55;;;;;;;8.13;4.68;;;9.50;98.40;;;;;;4990074;28;20036;-79
2021/04/11 01:25:24;;;;;;;6.45;5.07;;;9.40;98.40;;;;;;4988471;28;20041;-82
2021/04/11 01:27:49;;;;;;;6.57;5.60;;;9.40;98.50;;;;;;4991438;28;20183;-80
2021/04/11 01:30:19;;;;;;;8.05;4.57;;;9.40;98.50;;;;;;4994926;28;20828;-81
2021/04/11 01:32:45;;;;;;;6.97;4.50;;;9.40;98.40;;;;;;4993116;28;20134;-81
2021/04/11 01:35:11;;;;;;;5.55;4.30;;;9.40;98.40;;;;;;4975543;28;20494;-80
2021/04/11 01:37:37;;;;;;;7.05;5.80;;;9.50;98.50;;;;;;4974228;28;20195;-81
2021/04/11 01:40:03;;;;;;;6.10;4.97;;;9.40;98.40;;;;;;4966681;28;20053;-78
2021/04/11 01:42:28;;;;;;;8.30;5.72;;;9.40;98.40;;;;;;4973057;28;20034;-80
2021/04/11 01:44:55;;;;;;;12.50;5.53;;;9.30;98.70;;;;;;4992875;28;20045;-81
2021/04/11 01:47:20;;;;;;;8.30;5.15;;;9.40;98.70;;;;;;5000577;28;20037;-81
2021/04/11 01:49:46;;;;;;;5.85;5.10;;;9.40;98.60;;;;;;4992633;28;20432;-80
2021/04/11 01:52:14;;;;;;;8.48;5.97;;;9.40;98.50;;;;;;4998124;28;20040;-80
2021/04/11 01:54:39;;;;;;;7.30;4.93;;;9.40;98.70;;;;;;4991217;28;20030;-81
2021/04/11 01:57:10;;;;;;;8.38;5.68;;;9.50;98.60;;;;;;4957695;28;20527;-81
2021/04/11 01:59:35;;;;;;;15.18;5.70;;;9.40;98.70;;;;;;4974242;28;20038;-81
2021/04/11 02:02:01;;;;;;;6.63;4.88;;;9.40;98.70;;;;;;4988241;28;20030;-80
2021/04/11 02:04:26;;;;;;;7.80;5.35;;;9.50;98.50;;;;;;4973499;28;20042;-80
2021/04/11 02:06:53;;;;;;;8.77;5.85;;;9.50;98.50;;;;;;5002819;28;20031;-75
2021/04/11 02:09:26;;;;;;;8.02;4.78;;;9.50;98.70;;;;;;4988565;28;20045;-75
2021/04/11 02:11:52;;;;;;;10.57;5.43;;;9.40;98.60;;;;;;5001159;28;20505;-75
2021/04/11 02:14:17;;;;;;;5.95;4.60;;;9.40;98.70;;;;;;4978174;28;20079;-76
2021/04/11 02:16:43;;;;;;;8.00;5.45;;;9.50;98.60;;;;;;4986554;28;20022;-76
2021/04/11 02:19:16;;;;;;;9.70;6.30;;;9.40;98.60;;;;;;4996005;28;20037;-76
2021/04/11 02:21:53;;;;;;;9.20;5.53;;;9.40;98.40;;;;;;4984655;28;20057;-76
2021/04/11 02:24:19;;;;;;;7.85;4.95;;;9.50;98.40;;;;;;4992891;28;20038;-75
2021/04/11 02:26:44;;;;;;;8.82;6.55;;;9.40;98.40;;;;;;4983047;28;20038;-75
2021/04/11 02:29:17;;;;;;;6.82;5.47;;;9.40;98.40;;;;;;4977114;28;20053;-76
2021/04/11 02:31:43;;;;;;;9.20;5.63;;;9.50;98.60;;;;;;4991520;28;20410;-75
2021/04/11 02:34:13;;;;;;;8.80;6.25;;;9.50;98.50;;;;;;4996592;28;20026;-76
2021/04/11 02:36:47;;;;;;;9.07;5.28;;;9.50;98.70;;;;;;4987698;28;20026;-75
2021/04/11 02:39:18;;;;;;;9.57;6.47;;;9.50;98.60;;;;;;4994536;28;20374;-75
2021/04/11 02:41:44;;;;;;;7.32;6.53;;;9.40;98.70;;;;;;4991565;28;20079;-76
2021/04/11 02:44:09;;;;;;;12.95;10.45;;;9.40;98.80;;;;;;4997894;28;20033;-75
2021/04/11 02:46:36;;;;;;;33.78;20.85;;;9.30;98.40;;;;;;4997298;28;20116;-76
2021/04/11 02:49:03;;;;;;;48.55;30.10;;;9.40;98.60;;;;;;4972122;28;20026;-76
2021/04/11 02:51:30;;;;;;;42.05;24.75;;;9.30;98.50;;;;;;4969924;28;20034;-76
2021/04/11 02:53:59;;;;;;;58.25;31.63;;;9.30;98.50;;;;;;4986498;28;20034;-80
2021/04/11 02:56:26;;;;;;;42.90;25.45;;;9.20;98.30;;;;;;4986127;28;20034;-80
2021/04/11 02:58:51;;;;;;;45.17;27.40;;;9.20;98.40;;;;;;4967278;28;20666;-79
2021/04/11 03:01:33;;;;;;;54.53;30.23;;;9.10;98.20;;;;;;4991333;28;20041;-80
2021/04/11 03:03:59;;;;;;;49.60;29.02;;;9.10;98.20;;;;;;4983303;28;20125;-80
2021/04/11 03:06:29;;;;;;;54.60;34.05;;;9.00;98.10;;;;;;4972508;28;20208;-81
2021/04/11 03:08:56;;;;;;;45.50;26.17;;;9.00;98.20;;;;;;4995273;28;20478;-80
2021/04/11 03:11:31;;;;;;;33.95;20.23;;;8.90;98.20;;;;;;4981010;28;20022;-80
2021/04/11 03:13:57;;;;;;;26.42;18.13;;;8.90;98.00;;;;;;4997502;28;20046;-80
2021/04/11 03:16:23;;;;;;;25.38;18.35;;;8.80;98.00;;;;;;5004550;28;20077;-80
2021/04/11 03:18:48;;;;;;;21.88;14.13;;;8.70;98.00;;;;;;4973847;28;20042;-81
2021/04/11 03:21:14;;;;;;;27.33;15.45;;;8.70;98.00;;;;;;5009858;28;20441;-80
2021/04/11 03:23:39;;;;;;;16.38;10.90;;;8.70;97.70;;;;;;4992208;28;20068;-81
2021/04/11 03:26:15;;;;;;;18.45;11.07;;;8.60;97.80;;;;;;4971239;28;20040;-81
2021/04/11 03:28:43;;;;;;;15.57;9.82;;;8.60;97.60;;;;;;4992577;28;20080;-81
2021/04/11 03:31:22;;;;;;;17.48;9.77;;;8.60;97.40;;;;;;4992467;28;20482;-80
2021/04/11 03:33:50;;;;;;;15.13;8.85;;;8.50;97.50;;;;;;4980607;28;20042;-80
2021/04/11 03:36:17;;;;;;;15.02;9.07;;;8.40;97.70;;;;;;4982738;28;20034;-81
2021/04/11 03:38:42;;;;;;;20.52;10.13;;;8.30;97.40;;;;;;4991982;28;20077;-81
2021/04/11 03:41:08;;;;;;;21.92;11.50;;;8.30;97.30;;;;;;4981713;28;20034;-81
2021/04/11 03:43:45;;;;;;;27.88;14.30;;;8.10;97.50;;;;;;4982887;28;20036;-81
2021/04/11 03:46:33;;;;;;;25.42;13.60;;;8.00;97.50;;;;;;4976991;28;20120;-81
2021/04/11 03:49:21;;;;;;;29.73;13.57;;;7.90;97.40;;;;;;4976984;28;20031;-80
2021/04/11 03:51:47;;;;;;;30.75;16.77;;;7.80;97.50;;;;;;4987663;28;20146;-80
2021/04/11 03:54:17;;;;;;;37.20;17.05;;;7.90;97.20;;;;;;4981358;28;20050;-81
2021/04/11 03:57:07;;;;;;;32.65;18.92;;;7.80;97.40;;;;;;4992568;28;20026;-82
2021/04/11 03:59:46;;;;;;;36.88;21.52;;;7.80;97.30;;;;;;4992045;28;20033;-81
2021/04/11 04:02:12;;;;;;;33.50;18.50;;;7.50;97.40;;;;;;4990823;28;20022;-82
2021/04/11 04:04:39;;;;;;;29.63;14.20;;;7.60;97.30;;;;;;4977930;28;20101;-79
2021/04/11 04:07:10;;;;;;;42.08;19.25;;;7.50;97.30;;;;;;4971715;28;20052;-82
2021/04/11 04:09:39;;;;;;;30.65;17.20;;;7.40;97.20;;;;;;5005862;28;20049;-81
2021/04/11 04:12:17;;;;;;;36.20;17.52;;;7.50;97.30;;;;;;4990196;28;20417;-82
2021/04/11 04:15:04;;;;;;;34.08;16.10;;;7.50;97.00;;;;;;4999676;28;20076;-82
2021/04/11 04:17:53;;;;;;;25.80;14.55;;;7.40;96.90;;;;;;4998798;28;20108;-80
2021/04/11 04:20:25;;;;;;;20.67;13.10;;;7.30;97.00;;;;;;4990394;28;20037;-81
2021/04/11 04:23:14;;;;;;;22.20;12.52;;;7.10;97.10;;;;;;4991094;28;20037;-81
2021/04/11 04:26:03;;;;;;;21.90;12.63;;;7.20;97.10;;;;;;4999339;28;20065;-80
2021/04/11 04:28:43;;;;;;;17.73;10.30;;;7.10;97.00;;;;;;4992111;28;20038;-81
2021/04/11 04:31:36;;;;;;;16.55;10.60;;;7.00;97.10;;;;;;4990876;28;20509;-80
2021/04/11 04:34:24;;;;;;;17.58;10.48;;;7.00;97.00;;;;;;4989671;28;20044;-81
2021/04/11 04:37:08;;;;;;;19.00;12.13;;;7.00;97.20;;;;;;4989537;28;20038;-79
2021/04/11 04:39:53;;;;;;;21.33;13.13;;;7.00;96.70;;;;;;4986651;28;20034;-78
2021/04/11 04:42:34;;;;;;;25.10;12.75;;;7.10;97.00;;;;;;4980845;28;20039;-80
2021/04/11 04:45:21;;;;;;;25.42;13.35;;;7.00;96.70;;;;;;5001144;28;20038;-81
2021/04/11 04:47:56;;;;;;;32.30;18.70;;;6.90;97.10;;;;;;5005195;28;20060;-79
2021/04/11 04:50:24;;;;;;;34.60;19.00;;;6.90;96.90;;;;;;4974375;28;20034;-78
2021/04/11 04:53:04;;;;;;;36.38;19.52;;;6.80;96.90;;;;;;4995097;28;20053;-80
2021/04/11 04:55:29;;;;;;;30.67;17.00;;;6.70;96.80;;;;;;4989730;28;20035;-80
2021/04/11 04:58:01;;;;;;;28.10;16.52;;;6.60;97.00;;;;;;4989478;28;20033;-81
2021/04/11 05:00:30;;;;;;;21.27;14.73;;;6.70;96.80;;;;;;4988957;28;20034;-79
2021/04/11 05:03:16;;;;;;;15.82;11.35;;;6.60;96.90;;;;;;5001533;28;20038;-79
2021/04/11 05:06:02;;;;;;;13.25;10.07;;;6.50;97.10;;;;;;4980230;28;20054;-82
2021/04/11 05:08:35;;;;;;;15.88;10.63;;;6.50;97.00;;;;;;5009279;28;20057;-81
2021/04/11 05:11:27;;;;;;;14.05;10.80;;;6.60;96.90;;;;;;4976181;28;20446;-81
2021/04/11 05:14:14;;;;;;;14.40;10.30;;;6.40;96.90;;;;;;4980933;28;20486;-82
2021/04/11 05:16:45;;;;;;;13.98;10.85;;;6.50;97.00;;;;;;4971628;28;20049;-78
2021/04/11 05:19:18;;;;;;;16.73;12.63;;;6.40;96.80;;;;;;4992235;28;20030;-81
2021/04/11 05:21:46;;;;;;;16.38;12.40;;;6.20;96.80;;;;;;5003864;28;20045;-84
2021/04/11 05:24:17;;;;;;;15.38;12.88;;;6.40;96.90;;;;;;4970210;28;20041;-80
2021/04/11 05:26:47;;;;;;;15.15;10.10;;;6.20;97.00;;;;;;4973374;28;20049;-81
2021/04/11 05:29:22;;;;;;;15.43;11.30;;;6.30;97.00;;;;;;4975133;28;20508;-83
2021/04/11 05:31:47;;;;;;;17.45;13.23;;;6.30;96.80;;;;;;4983825;28;20050;-82
2021/04/11 05:34:15;;;;;;;20.30;16.38;;;6.20;96.70;;;;;;4974067;28;20060;-83
2021/04/11 05:36:41;;;;;;;21.50;16.80;;;6.10;96.70;;;;;;4974806;28;20576;-83
2021/04/11 05:39:20;;;;;;;22.15;16.45;;;6.20;96.70;;;;;;5006166;28;20026;-80
2021/04/11 05:41:58;;;;;;;20.13;14.27;;;6.20;96.60;;;;;;4974165;28;20760;-82
2021/04/11 05:44:48;;;;;;;19.40;13.80;;;6.30;96.90;;;;;;4990376;28;20120;-82
2021/04/11 05:47:18;;;;;;;25.40;19.17;;;6.30;96.60;;;;;;5006627;28;20141;-84
2021/04/11 05:49:49;;;;;;;23.17;16.38;;;6.10;96.50;;;;;;4990299;28;20030;-83
2021/04/11 05:52:19;;;;;;;27.17;18.40;;;6.10;96.80;;;;;;4983736;28;20141;-84
2021/04/11 05:54:50;;;;;;;19.92;13.75;;;6.00;96.70;;;;;;4991020;28;20042;-81
2021/04/11 05:57:26;;;;;;;23.17;17.05;;;5.90;97.10;;;;;;4970143;28;20037;-81
2021/04/11 05:59:59;;;;;;;26.17;18.55;;;6.00;96.80;;;;;;4992968;28;20030;-81
2021/04/11 06:02:39;;;;;;;24.40;18.08;;;6.00;96.70;;;;;;4973091;28;20042;-80
2021/04/11 06:05:11;;;;;;;27.52;18.77;;;6.10;96.50;;;;;;5004152;28;20026;-81
2021/04/11 06:08:00;;;;;;;33.20;22.25;;;5.90;96.60;;;;;;4982486;28;20121;-80
2021/04/11 06:10:52;;;;;;;31.90;20.02;;;5.90;96.90;;;;;;4989826;28;20045;-80
2021/04/11 06:13:20;;;;;;;26.40;16.30;;;5.90;96.70;;;;;;5001672;28;20034;-80
2021/04/11 06:15:59;;;;;;;46.33;26.30;;;6.00;96.80;;;;;;4997447;28;20038;-80
2021/04/11 06:18:24;;;;;;;39.15;21.20;;;6.00;96.90;;;;;;4973517;28;20757;-81
2021/04/11 06:20:50;;;;;;;51.47;28.55;;;5.90;96.80;;;;;;4995499;28;20128;-81
2021/04/11 06:23:18;;;;;;;29.95;17.40;;;6.00;96.60;;;;;;4975759;28;20121;-80
2021/04/11 06:25:49;;;;;;;47.72;28.80;;;5.90;96.80;;;;;;5002622;28;20033;-80
2021/04/11 06:28:53;;;;;;;47.90;25.38;;;5.80;96.70;;;;;;4974476;28;20050;-80
2021/04/11 06:31:27;;;;;;;33.35;19.23;;;5.70;97.00;;;;;;5017200;28;20060;-80
2021/04/11 06:33:59;;;;;;;63.63;34.97;;;5.90;96.50;;;;;;4979073;28;20034;-80
2021/04/11 06:36:30;;;;;;;61.67;29.25;;;5.70;96.50;;;;;;4974564;28;20085;-79
2021/04/11 06:38:56;;;;;;;48.35;25.70;;;5.70;96.60;;;;;;4982324;28;20030;-80
2021/04/11 06:41:41;;;;;;;63.33;31.52;;;5.80;96.80;;;;;;4997797;28;20045;-81
2021/04/11 06:44:41;;;;;;;57.97;31.10;;;5.80;96.60;;;;;;5001002;28;20040;-81
2021/04/11 06:47:34;;;;;;;56.17;30.75;;;5.80;96.50;;;;;;5011993;28;20030;-80
2021/04/11 06:50:18;;;;;;;57.30;33.45;;;5.70;96.60;;;;;;5007456;28;20037;-80
2021/04/11 06:52:53;;;;;;;51.78;28.38;;;5.70;96.50;;;;;;5000686;28;20434;-79
2021/04/11 06:55:42;;;;;;;44.38;25.08;;;5.70;96.80;;;;;;4993289;28;20080;-81
2021/04/11 06:58:19;;;;;;;50.70;26.23;;;5.80;96.40;;;;;;4997073;28;20042;-78
2021/04/11 07:00:50;;;;;;;52.13;27.88;;;5.80;96.40;;;;;;5001131;28;20397;-80
2021/04/11 07:03:56;;;;;;;49.83;28.13;;;5.80;96.30;;;;;;4976194;28;20030;-80
2021/04/11 07:06:37;;;;;;;43.92;24.70;;;5.70;96.50;;;;;;4952861;28;20039;-80
2021/04/11 07:09:11;;;;;;;36.45;22.60;;;5.60;96.70;;;;;;5007247;28;20041;-81
2021/04/11 07:12:10;;;;;;;31.35;19.27;;;5.60;96.70;;;;;;5007933;28;20485;-82
2021/04/11 07:14:39;;;;;;;31.92;17.80;;;5.60;96.70;;;;;;4998881;28;20026;-81
2021/04/11 07:17:32;;;;;;;30.48;18.95;;;5.50;96.90;;;;;;5006755;28;20030;-80
2021/04/11 07:20:38;;;;;;;29.98;16.20;;;5.60;96.70;;;;;;5008701;28;20037;-80
2021/04/11 07:23:20;;;;;;;24.40;14.93;;;5.60;96.80;;;;;;4954175;28;20027;-81
2021/04/11 07:26:10;;;;;;;25.08;15.50;;;5.60;96.70;;;;;;5000560;28;20038;-81
2021/04/11 07:28:54;;;;;;;24.50;15.13;;;5.60;96.80;;;;;;4996619;28;20540;-80
2021/04/11 07:31:57;;;;;;;19.65;13.50;;;5.60;96.60;;;;;;5000190;28;20042;-80
2021/04/11 07:35:01;;;;;;;21.55;11.10;;;5.60;96.80;;;;;;5004138;28;20029;-79
2021/04/11 07:38:03;;;;;;;21.13;12.75;;;5.60;96.90;;;;;;5007358;28;20045;-81
2021/04/11 07:40:50;;;;;;;11.65;8.82;;;5.90;96.70;;;;;;4998633;28;20047;-80
2021/04/11 07:43:27;;;;;;;;;;;5.80;96.90;;;;;;4992829;28;20251;-80
2021/04/11 07:46:12;;;;;;;11.45;7.90;;;5.80;97.10;;;;;;4998174;28;19910;-81
2021/04/11 07:49:01;;;;;;;11.38;8.00;;;5.90;97.00;;;;;;4991547;28;20038;-80
2021/04/11 07:51:35;;;;;;;13.02;9.52;;;5.80;97.00;;;;;;4991375;28;20457;-81
2021/04/11 07:54:24;;;;;;;15.43;8.75;;;5.90;96.80;;;;;;4989040;28;20034;-81
2021/04/11 07:57:01;;;;;;;13.05;9.38;;;5.90;96.70;;;;;;4978028;28;20033;-83
2021/04/11 07:59:45;;;;;;;12.23;8.23;;;6.00;96.80;;;;;;5002802;28;20505;-83
2021/04/11 08:02:16;;;;;;;10.63;7.68;;;5.90;97.00;;;;;;5001101;28;20026;-80
2021/04/11 08:05:03;;;;;;;10.63;7.80;;;5.90;97.00;;;;;;4990499;28;20030;-83
2021/04/11 08:07:57;;;;;;;12.07;8.02;;;6.00;96.80;;;;;;5001099;28;20540;-82
2021/04/11 08:10:41;;;;;;;9.48;7.63;;;6.00;96.80;;;;;;5010388;28;20088;-83
2021/04/11 08:13:21;;;;;;;10.40;6.78;;;5.90;97.10;;;;;;5003188;28;20429;-82
2021/04/11 08:15:57;;;;;;;10.82;7.35;;;5.80;97.00;;;;;;4991907;28;20054;-81
2021/04/11 08:18:57;;;;;;;12.23;6.72;;;5.80;97.20;;;;;;5001166;28;20034;-82
2021/04/11 08:21:30;;;;;;;11.18;7.68;;;5.90;97.10;;;;;;4989551;28;20041;-81
2021/04/11 08:24:26;;;;;;;12.48;7.93;;;5.90;96.90;;;;;;4978103;28;20043;-80
2021/04/11 08:26:56;;;;;;;13.73;9.15;;;6.00;96.90;;;;;;5003620;28;20117;-82
2021/04/11 08:29:58;;;;;;;10.10;8.02;;;5.90;97.30;;;;;;5009877;28;20033;-82
2021/04/11 08:32:46;;;;;;;12.10;7.32;;;5.90;97.00;;;;;;4926860;28;20062;-83
2021/04/11 08:35:40;;;;;;;9.65;7.80;;;6.00;97.10;;;;;;4991652;28;20049;-82
2021/04/11 08:38:24;;;;;;;12.50;7.43;;;5.90;97.10;;;;;;5002523;28;20121;-83
2021/04/11 08:41:21;;;;;;;7.57;6.45;;;5.90;97.20;;;;;;5006401;28;20520;-82
2021/04/11 08:44:11;;;;;;;11.75;8.35;;;5.90;97.10;;;;;;4982846;28;20525;-82
2021/04/11 08:46:48;;;;;;;11.40;7.28;;;5.90;97.20;;;;;;5012849;28;20032;-80
2021/04/11 08:49:30;;;;;;;11.25;8.93;;;5.90;97.10;;;;;;4985230;28;20030;-82
2021/04/11 08:52:08;;;;;;;11.75;10.15;;;5.90;97.20;;;;;;4987868;28;20041;-82
2021/04/11 08:54:51;;;;;;;9.60;8.07;;;5.90;97.20;;;;;;4992299;28;20043;-83
2021/04/11 08:57:20;;;;;;;7.43;6.18;;;5.90;97.10;;;;;;4994553;28;20033;-81
2021/04/11 09:00:04;;;;;;;5.85;5.25;;;5.80;97.20;;;;;;5004930;28;20034;-82
2021/04/11 09:02:45;;;;;;;6.47;5.78;;;5.80;97.20;;;;;;5004426;28;20492;-81
2021/04/11 09:05:38;;;;;;;8.02;6.50;;;5.80;97.10;;;;;;4988428;28;20474;-80
2021/04/11 09:08:09;;;;;;;7.28;6.40;;;5.80;97.20;;;;;;4997144;28;20030;-82
2021/04/11 09:11:16;;;;;;;8.50;4.88;;;5.80;97.10;;;;;;4991519;28;20034;-82
2021/04/11 09:14:09;;;;;;;5.90;4.05;;;5.70;97.50;;;;;;4975255;28;20042;-82
2021/04/11 09:16:52;;;;;;;6.55;4.70;;;5.70;97.90;;;;;;4982887;28;20501;-82
2021/04/11 09:19:26;;;;;;;6.15;4.57;;;5.80;97.50;;;;;;5004234;28;20596;-82
2021/04/11 09:22:13;;;;;;;5.53;3.38;;;5.70;97.70;;;;;;5010185;28;20033;-82
2021/04/11 09:24:45;;;;;;;8.93;5.68;;;5.60;97.90;;;;;;4989878;28;20080;-82
2021/04/11 09:27:30;;;;;;;6.15;5.55;;;5.50;98.10;;;;;;5000878;28;20038;-81
2021/04/11 09:30:37;;;;;;;5.57;4.32;;;5.60;98.00;;;;;;5002793;28;20038;-83
2021/04/11 09:33:21;;;;;;;9.15;5.72;;;5.60;98.20;;;;;;5002684;28;20042;-83
2021/04/11 09:36:24;;;;;;;6.55;4.80;;;5.50;98.50;;;;;;4996858;28;20873;-83
2021/04/11 09:39:02;;;;;;;4.97;4.47;;;5.50;98.30;;;;;;4991613;28;20038;-81
2021/04/11 09:41:52;;;;;;;4.70;4.25;;;5.60;98.00;;;;;;4991244;28;20035;-82
2021/04/11 09:44:49;;;;;;;5.50;4.40;;;5.80;98.00;;;;;;4989206;28;20042;-82
2021/04/11 09:47:39;;;;;;;5.03;4.57;;;5.80;98.20;;;;;;5011327;28;20030;-82
2021/04/11 09:50:16;;;;;;;5.50;5.00;;;5.80;98.80;;;;;;5000816;28;20030;-82
2021/04/11 09:53:18;;;;;;;7.82;4.95;;;5.70;98.40;;;;;;4995302;28;20042;-82
2021/04/11 09:56:08;;;;;;;6.45;5.82;;;5.80;98.70;;;;;;5015653;28;20042;-82
2021/04/11 09:58:57;;;;;;;7.57;6.82;;;5.80;98.60;;;;;;5007429;28;20030;-83
2021/04/11 10:01:37;;;;;;;9.13;6.47;;;5.90;98.60;;;;;;5007444;28;20025;-82
2021/04/11 10:04:40;;;;;;;8.05;5.82;;;5.70;98.40;;;;;;4998862;28;20038;-82
2021/04/11 10:07:25;;;;;;;8.00;7.20;;;5.90;98.30;;;;;;5004526;28;20062;-83
2021/04/11 10:10:01;;;;;;;10.10;8.05;;;6.00;98.50;;;;;;5007235;28;20045;-83
2021/04/11 10:12:46;;;;;;;9.38;7.97;;;6.10;98.70;;;;;;5001879;28;20514;-82
2021/04/11 10:15:21;;;;;;;7.75;6.70;;;6.20;99.00;;;;;;4998719;28;20411;-82
2021/04/11 10:18:17;;;;;;;7.47;6.68;;;6.20;98.80;;;;;;4994974;28;20034;-83
2021/04/11 10:21:09;;;;;;;7.68;6.75;;;6.20;99.10;;;;;;5007537;28;20404;-83
2021/04/11 10:24:09;;;;;;;9.00;8.10;;;6.20;98.80;;;;;;4972894;28;20046;-82
2021/04/11 10:26:51;;;;;;;7.82;6.80;;;6.30;99.00;;;;;;4999121;28;20029;-83
2021/04/11 10:29:18;;;;;;;6.82;6.22;;;6.30;99.10;;;;;;4987809;28;20421;-82
2021/04/11 10:31:48;;;;;;;8.15;7.30;;;6.30;99.10;;;;;;4975188;28;20034;-82
2021/04/11 10:34:18;;;;;;;9.50;7.40;;;6.40;99.00;;;;;;5000499;28;20046;-82
2021/04/11 10:36:52;;;;;;;9.82;8.70;;;6.50;98.90;;;;;;5002686;28;20037;-81
2021/04/11 10:39:26;;;;;;;8.93;7.72;;;6.70;99.10;;;;;;5003000;28;20088;-79
2021/04/11 10:42:08;;;;;;;11.68;8.32;;;6.70;98.90;;;;;;4966115;28;20030;-82
2021/04/11 10:44:47;;;;;;;8.25;7.45;;;6.90;98.90;;;;;;4969098;28;20037;-81
2021/04/11 10:47:21;;;;;;;7.28;5.65;;;6.90;99.00;;;;;;5002514;28;20034;-82
2021/04/11 10:49:53;;;;;;;5.97;5.47;;;6.90;98.60;;;;;;4991273;28;20116;-82
2021/04/11 10:52:30;;;;;;;5.00;4.05;;;6.90;98.40;;;;;;4972872;28;20069;-82
2021/04/11 10:55:18;;;;;;;5.03;4.20;;;6.90;98.30;;;;;;4998641;28;20034;-79
2021/04/11 10:58:11;;;;;;;3.80;3.50;;;6.80;98.70;;;;;;5004490;28;20042;-82
2021/04/11 11:00:53;;;;;;;5.30;3.95;;;6.70;98.70;;;;;;4982397;28;20391;-81
2021/04/11 11:03:49;;;;;;;4.50;4.08;;;6.70;98.70;;;;;;4615780;28;10001372;-82
2021/04/11 11:06:44;;;;;;;3.97;3.65;;;6.70;98.50;;;;;;5015031;28;20251;-81
2021/04/11 11:09:24;;;;;;;5.65;3.80;;;6.80;98.50;;;;;;5000828;28;20130;-81
2021/04/11 11:12:20;;;;;;;4.57;4.18;;;6.80;98.50;;;;;;5011068;28;20030;-79
2021/04/11 11:15:03;;;;;;;4.87;4.07;;;6.90;98.80;;;;;;4989088;28;20152;-80
2021/04/11 11:17:56;;;;;;;4.97;4.10;;;6.80;98.90;;;;;;5015332;28;20045;-81
2021/04/11 11:20:42;;;;;;;6.28;5.15;;;6.80;98.90;;;;;;5007160;28;20101;-82
2021/04/11 11:23:45;;;;;;;6.40;5.60;;;6.90;99.20;;;;;;4988779;28;20389;-80
2021/04/11 11:26:41;;;;;;;5.53;4.55;;;6.90;99.10;;;;;;5010907;28;20035;-82
2021/04/11 11:29:40;;;;;;;8.13;4.30;;;6.90;98.60;;;;;;4994386;28;20066;-83
2021/04/11 11:32:11;;;;;;;4.90;3.40;;;6.80;98.70;;;;;;5008854;28;20068;-83
2021/04/11 11:35:00;;;;;;;4.38;3.35;;;6.70;98.40;;;;;;5012428;28;20311;-82
2021/04/11 11:37:34;;;;;;;3.70;3.40;;;6.50;98.90;;;;;;4985694;28;20543;-82
2021/04/11 11:40:12;;;;;;;5.13;3.90;;;6.40;98.90;;;;;;5023674;28;20670;-82
2021/04/11 11:43:00;;;;;;;4.93;3.30;;;6.40;99.00;;;;;;4989129;28;20030;-82
2021/04/11 11:45:36;;;;;;;5.43;4.82;;;6.50;99.00;;;;;;4989587;28;20026;-81
2021/04/11 11:48:25;;;;;;;4.32;3.88;;;6.50;98.90;;;;;;4998911;28;20029;-81
2021/04/11 11:51:10;;;;;;;5.13;3.63;;;6.60;99.00;;;;;;4987103;28;20022;-82
2021/04/11 11:53:55;;;;;;;4.40;2.75;;;6.60;98.90;;;;;;4998298;28;20434;-81
2021/04/11 11:56:50;;;;;;;3.92;3.60;;;6.60;98.60;;;;;;5006277;28;20065;-82
2021/04/11 11:59:25;;;;;;;4.00;3.60;;;6.60;99.10;;;;;;4964855;28;20033;-81
2021/04/11 12:02:23;;;;;;;4.37;3.63;;;6.70;99.10;;;;;;4988148;28;20034;-82
2021/04/11 12:05:09;;;;;;;4.40;3.20;;;6.70;99.30;;;;;;5003941;28;20284;-82
2021/04/11 12:07:43;;;;;;;5.68;4.03;;;6.70;99.00;;;;;;5000761;28;20118;-82
2021/04/11 12:10:38;;;;;;;4.95;4.22;;;6.70;99.00;;;;;;5000420;28;20137;-82
2021/04/11 12:13:18;;;;;;;5.15;4.60;;;6.70;99.10;;;;;;4951241;28;20048;-82
2021/04/11 12:16:15;;;;;;;5.70;5.20;;;6.60;99.10;;;;;;5002940;28;20042;-82
2021/04/11 12:18:44;;;;;;;6.93;6.28;;;6.50;99.20;;;;;;5000745;28;20422;-80
2021/04/11 12:21:38;;;;;;;6.68;5.43;;;6.60;99.20;;;;;;4979146;28;20048;-80
2021/04/11 12:24:12;;;;;;;7.85;6.43;;;6.60;99.30;;;;;;5015353;28;20030;-80
2021/04/11 12:26:46;;;;;;;7.82;5.78;;;6.70;99.30;;;;;;4988111;28;20448;-80
2021/04/11 12:29:12;;;;;;;8.82;6.70;;;6.70;99.30;;;;;;4993056;28;20034;-81
2021/04/11 12:31:48;;;;;;;8.00;6.45;;;6.70;98.90;;;;;;4982864;28;20137;-81
2021/04/11 12:34:29;;;;;;;10.52;6.65;;;6.80;99.20;;;;;;4985483;28;20161;-81
2021/04/11 12:37:15;;;;;;;8.52;6.70;;;6.90;99.10;;;;;;4986840;28;20038;-81
2021/04/11 12:39:41;;;;;;;9.05;5.75;;;7.10;99.30;;;;;;5002102;28;20045;-81
2021/04/11 12:42:35;;;;;;;6.47;5.40;;;7.20;99.10;;;;;;4974327;28;20029;-80
2021/04/11 12:45:15;;;;;;;8.10;5.70;;;7.40;99.50;;;;;;4978600;28;20109;-81
2021/04/11 12:47:54;;;;;;;4.07;3.28;;;7.70;99.90;;;;;;4993091;28;20039;-81
2021/04/11 12:50:39;;;;;;;4.90;3.88;;;7.80;99.90;;;;;;5006746;28;20045;-80
2021/04/11 12:53:15;;;;;;;6.07;4.07;;;7.90;99.90;;;;;;4983724;28;20397;-80
2021/04/11 12:55:55;;;;;;;6.32;4.68;;;8.00;99.90;;;;;;4994626;28;20048;-80
2021/04/11 12:58:22;;;;;;;6.97;5.43;;;8.20;99.90;;;;;;4975281;28;20030;-80
2021/04/11 13:01:08;;;;;;;7.35;5.63;;;8.20;99.90;;;;;;4992814;28;20041;-81
2021/04/11 13:03:39;;;;;;;6.85;5.13;;;8.40;99.90;;;;;;4984449;28;20446;-81
2021/04/11 13:06:15;;;;;;;8.68;4.80;;;8.50;99.90;;;;;;5001920;28;20088;-82
2021/04/11 13:08:49;;;;;;;5.85;3.97;;;8.60;99.70;;;;;;4994423;28;20038;-82
2021/04/11 13:11:23;;;;;;;6.38;4.57;;;8.60;99.80;;;;;;5006679;28;20436;-82
2021/04/11 13:14:05;;;;;;;7.97;4.95;;;8.60;99.70;;;;;;5001250;28;20550;-83
2021/04/11 13:16:33;;;;;;;5.55;4.40;;;8.60;99.70;;;;;;4993726;28;20033;-82
2021/04/11 13:19:15;;;;;;;5.05;4.63;;;8.70;99.50;;;;;;4985627;28;20514;-81
2021/04/11 13:22:06;;;;;;;8.48;4.78;;;8.70;99.20;;;;;;4987533;28;20160;-81
2021/04/11 13:24:56;;;;;;;5.60;4.25;;;8.70;99.30;;;;;;4993409;28;20038;-80
2021/04/11 13:27:29;;;;;;;5.28;3.30;;;8.70;99.30;;;;;;5001351;28;20505;-80
2021/04/11 13:30:01;;;;;;;6.15;3.13;;;8.70;99.10;;;;;;4986731;28;20129;-82
2021/04/11 13:32:49;;;;;;;5.38;4.03;;;8.80;99.20;;;;;;5021412;28;20116;-79
2021/04/11 13:35:46;;;;;;;6.15;3.22;;;8.80;99.40;;;;;;4977572;28;20666;-82
2021/04/11 13:38:22;;;;;;;3.17;2.15;;;8.90;99.50;;;;;;4975982;28;20046;-83
2021/04/11 13:40:47;;;;;;;5.20;2.15;;;8.80;99.30;;;;;;4982805;28;20038;-82
2021/04/11 13:43:22;;;;;;;3.65;2.40;;;8.80;99.50;;;;;;4985695;28;20559;-81